Time;durP1;ratioP1;P1;durP2;ratioP2;P2;SDS_P1;SDS_P2;PMS_P1;PMS_P2;Temp;Humidity;BMP_temperature;BMP_pressure;BME280_temperature;BME280_humidity;BME280_pressure;Samples;Min_cycle;Max_cycle;Signal;HPM_P1;HPM_P2
2023/04/12 00:02:26;;;;;;;6.95;1.73;;;20.50;99.90;;;;;;5065657;28;20180;-67
2023/04/12 00:04:57;;;;;;;7.50;1.77;;;20.60;99.90;;;;;;5069641;28;20037;-67
2023/04/12 00:07:26;;;;;;;4.78;1.48;;;20.80;99.90;;;;;;5071487;28;20501;-68
2023/04/12 00:09:53;;;;;;;4.30;1.40;;;20.90;99.90;;;;;;5062360;28;20021;-68
2023/04/12 00:12:21;;;;;;;6.93;1.95;;;21.00;99.90;;;;;;5065871;28;20035;-69
2023/04/12 00:14:48;;;;;;;5.78;1.30;;;21.20;99.90;;;;;;5059785;28;20075;-68
2023/04/12 00:17:15;;;;;;;4.85;1.30;;;21.40;99.90;;;;;;5067031;28;20031;-68
2023/04/12 00:19:43;;;;;;;4.43;1.20;;;21.40;99.90;;;;;;5068543;28;20044;-67
2023/04/12 00:22:11;;;;;;;16.67;1.55;;;21.40;99.90;;;;;;5068587;28;20104;-68
2023/04/12 00:24:40;;;;;;;2.60;1.15;;;21.50;99.90;;;;;;5063726;28;20102;-65
2023/04/12 00:27:08;;;;;;;3.38;1.00;;;21.70;99.90;;;;;;5062805;28;20040;-66
2023/04/12 00:29:35;;;;;;;2.95;1.02;;;21.70;99.90;;;;;;5064607;28;20507;-64
2023/04/12 00:32:04;;;;;;;4.28;1.00;;;21.70;99.90;;;;;;5061215;28;20120;-64
2023/04/12 00:34:31;;;;;;;2.35;1.00;;;21.70;99.90;;;;;;5080816;28;20021;-66
2023/04/12 00:37:04;;;;;;;3.17;1.50;;;21.80;99.90;;;;;;5070574;28;20035;-65
2023/04/12 00:39:35;;;;;;;6.97;1.52;;;22.00;99.90;;;;;;5081533;28;20035;-65
2023/04/12 00:42:05;;;;;;;5.97;1.52;;;22.20;99.90;;;;;;5056255;28;20816;-64
2023/04/12 00:44:34;;;;;;;4.82;1.17;;;22.20;99.90;;;;;;5061966;28;20623;-65
2023/04/12 00:47:06;;;;;;;3.08;0.90;;;22.20;99.90;;;;;;5072099;28;20051;-65
2023/04/12 00:49:34;;;;;;;5.40;2.13;;;22.50;99.90;;;;;;5061661;28;20032;-65
2023/04/12 00:52:04;;;;;;;3.47;0.88;;;22.70;99.90;;;;;;5048909;28;20504;-65
2023/04/12 00:54:34;;;;;;;4.10;1.67;;;22.80;99.90;;;;;;5056983;28;20768;-65
2023/04/12 00:57:02;;;;;;;3.97;0.95;;;23.00;99.90;;;;;;5061636;28;20421;-66
2023/04/12 00:59:30;;;;;;;5.57;1.65;;;23.10;99.90;;;;;;5066283;28;20378;-66
2023/04/12 01:01:58;;;;;;;5.03;1.10;;;23.20;99.90;;;;;;5061810;28;20074;-65
2023/04/12 01:04:27;;;;;;;4.22;1.10;;;23.30;99.90;;;;;;5077412;28;20033;-65
2023/04/12 01:07:14;;;;;;;6.53;1.52;;;23.40;99.90;;;;;;5052226;28;20459;-65
2023/04/12 01:09:56;;;;;;;4.72;1.23;;;23.30;99.70;;;;;;5057741;28;20108;-65
2023/04/12 01:12:42;;;;;;;3.22;1.30;;;23.20;99.60;;;;;;5059636;28;20027;-65
2023/04/12 01:15:17;;;;;;;6.55;1.52;;;23.10;98.90;;;;;;5064767;28;20038;-65
2023/04/12 01:17:47;;;;;;;4.40;1.50;;;23.10;99.90;;;;;;5053256;28;20366;-66
2023/04/12 01:20:20;;;;;;;5.13;1.77;;;23.00;99.90;;;;;;5061668;28;20056;-65
2023/04/12 01:23:04;;;;;;;6.55;2.33;;;22.70;99.90;;;;;;5054409;28;20040;-67
2023/04/12 01:26:05;;;;;;;5.30;1.70;;;22.80;99.90;;;;;;5062152;28;20618;-67
2023/04/12 01:28:40;;;;;;;8.35;1.95;;;22.70;99.90;;;;;;4991769;28;20500;-66
2023/04/12 01:31:11;;;;;;;9.75;1.83;;;22.70;99.90;;;;;;5063807;28;20028;-66
2023/04/12 01:33:40;;;;;;;5.65;2.08;;;22.70;99.90;;;;;;5056533;28;20033;-66
2023/04/12 01:36:17;;;;;;;6.68;1.77;;;22.80;99.90;;;;;;5065668;28;20021;-66
2023/04/12 01:38:46;;;;;;;5.60;2.60;;;22.80;99.90;;;;;;5065027;28;20020;-66
2023/04/12 01:41:14;;;;;;;5.07;1.85;;;22.80;99.90;;;;;;5064463;28;20985;-67
2023/04/12 01:43:46;;;;;;;6.10;1.40;;;22.90;99.90;;;;;;5068318;28;20497;-66
2023/04/12 01:46:19;;;;;;;4.82;1.65;;;23.00;99.90;;;;;;5059797;28;20514;-66
2023/04/12 01:48:50;;;;;;;4.47;1.77;;;23.10;99.90;;;;;;5052977;28;20047;-67
2023/04/12 01:51:46;;;;;;;6.55;1.65;;;23.20;99.90;;;;;;5059196;28;20389;-66
2023/04/12 01:54:25;;;;;;;5.03;1.88;;;23.30;99.90;;;;;;5058963;28;20045;-66
2023/04/12 01:56:58;;;;;;;4.60;1.40;;;23.40;99.00;;;;;;5067821;28;20504;-67
2023/04/12 01:59:45;;;;;;;5.22;1.67;;;23.60;98.60;;;;;;5065417;28;20111;-67
2023/04/12 02:02:13;;;;;;;4.53;1.77;;;23.70;99.10;;;;;;5064777;28;20025;-66
2023/04/12 02:04:42;;;;;;;4.47;1.33;;;23.70;98.30;;;;;;5062843;28;20385;-66
2023/04/12 02:07:10;;;;;;;4.30;1.52;;;23.70;97.50;;;;;;5061809;28;20044;-66
2023/04/12 02:09:40;;;;;;;4.70;1.48;;;23.90;97.70;;;;;;5067824;28;20036;-66
2023/04/12 02:12:08;;;;;;;2.78;1.50;;;24.10;97.00;;;;;;5071479;28;20025;-66
2023/04/12 02:14:36;;;;;;;4.82;1.40;;;24.60;96.10;;;;;;5053092;28;21533;-65
2023/04/12 02:17:04;;;;;;;1.65;1.20;;;24.70;93.70;;;;;;5072651;28;20099;-65
2023/04/12 02:19:31;;;;;;;3.78;1.65;;;24.50;95.30;;;;;;5061710;28;20489;-68
2023/04/12 02:21:59;;;;;;;2.30;1.27;;;24.50;93.90;;;;;;5060595;28;20116;-65
2023/04/12 02:24:27;;;;;;;5.20;1.25;;;24.50;91.80;;;;;;5056194;28;20025;-67
2023/04/12 02:26:55;;;;;;;4.38;1.23;;;24.20;90.00;;;;;;5060732;28;20032;-66
2023/04/12 02:29:22;;;;;;;4.57;1.20;;;24.00;84.70;;;;;;5066884;28;20021;-66
2023/04/12 02:31:50;;;;;;;1.77;1.05;;;23.80;78.10;;;;;;5065268;28;20059;-66
2023/04/12 02:34:17;;;;;;;3.45;0.90;;;23.80;77.10;;;;;;5067840;28;20090;-66
2023/04/12 02:36:49;;;;;;;1.23;0.57;;;23.70;76.00;;;;;;5064488;28;20031;-63
2023/04/12 02:39:20;;;;;;;5.28;1.05;;;23.60;72.00;;;;;;5060772;28;20630;-66
2023/04/12 02:41:48;;;;;;;2.75;1.13;;;23.40;73.40;;;;;;5068037;28;20039;-65
2023/04/12 02:44:15;;;;;;;2.85;1.30;;;23.40;73.10;;;;;;5066214;28;20107;-65
2023/04/12 02:46:42;;;;;;;7.25;1.08;;;23.40;72.50;;;;;;5058927;28;20024;-65
2023/04/12 02:49:10;;;;;;;2.63;0.77;;;23.50;75.70;;;;;;5079699;28;20024;-65
2023/04/12 02:51:38;;;;;;;2.70;0.88;;;23.40;73.40;;;;;;5076258;28;20059;-68
2023/04/12 02:54:05;;;;;;;1.88;0.93;;;23.30;76.90;;;;;;5069013;28;20025;-66
2023/04/12 02:56:35;;;;;;;2.28;1.08;;;23.20;80.00;;;;;;5068799;28;20028;-64
2023/04/12 02:59:03;;;;;;;6.13;1.88;;;23.10;83.80;;;;;;5068085;28;20067;-65
2023/04/12 03:01:30;;;;;;;2.92;0.93;;;23.00;87.00;;;;;;5078728;28;20369;-65
2023/04/12 03:03:58;;;;;;;1.48;1.02;;;22.80;82.00;;;;;;5074603;28;20032;-67
2023/04/12 03:06:25;;;;;;;2.33;0.70;;;22.60;80.70;;;;;;5069437;28;20401;-64
2023/04/12 03:08:52;;;;;;;2.70;1.10;;;22.50;80.80;;;;;;5086902;28;20013;-64
2023/04/12 03:11:20;;;;;;;2.88;1.00;;;22.30;79.60;;;;;;5069092;28;20389;-65
2023/04/12 03:13:47;;;;;;;2.13;1.00;;;22.20;82.20;;;;;;5068928;28;20725;-65
2023/04/12 03:16:24;;;;;;;2.40;0.90;;;22.10;81.70;;;;;;5072085;28;20028;-66
2023/04/12 03:18:51;;;;;;;3.25;1.10;;;22.10;80.60;;;;;;5070280;28;20024;-65
2023/04/12 03:21:19;;;;;;;3.33;1.13;;;22.00;81.30;;;;;;5084327;28;20027;-66
2023/04/12 03:23:46;;;;;;;2.03;0.82;;;22.00;81.20;;;;;;5080492;28;20032;-63
2023/04/12 03:26:14;;;;;;;2.55;0.90;;;21.90;81.00;;;;;;5070898;28;20041;-65
2023/04/12 03:28:41;;;;;;;4.07;0.80;;;21.90;80.50;;;;;;5064103;28;20019;-64
2023/04/12 03:31:09;;;;;;;2.33;0.95;;;21.80;78.90;;;;;;5085786;28;20063;-65
2023/04/12 03:33:36;;;;;;;2.60;1.00;;;21.70;76.60;;;;;;5065134;28;20064;-65
2023/04/12 03:36:06;;;;;;;4.32;1.15;;;21.70;77.80;;;;;;5071452;28;20037;-65
2023/04/12 03:38:33;;;;;;;3.38;1.30;;;21.70;79.10;;;;;;5071956;28;20032;-64
2023/04/12 03:41:01;;;;;;;2.30;1.33;;;21.60;76.10;;;;;;5072883;28;20031;-63
2023/04/12 03:43:34;;;;;;;6.35;1.10;;;21.60;77.00;;;;;;5062189;28;20025;-64
2023/04/12 03:46:04;;;;;;;4.20;1.08;;;21.80;81.40;;;;;;5081543;28;20233;-64
2023/04/12 03:48:31;;;;;;;1.92;1.00;;;22.00;78.10;;;;;;5081414;28;20086;-63
2023/04/12 03:50:59;;;;;;;1.85;0.88;;;22.10;78.10;;;;;;5072181;28;20557;-65
2023/04/12 03:53:27;;;;;;;3.13;1.10;;;22.30;79.70;;;;;;5063465;28;20024;-63
2023/04/12 03:55:55;;;;;;;2.13;1.00;;;22.40;85.70;;;;;;5072142;28;20033;-61
2023/04/12 03:58:22;;;;;;;2.90;1.00;;;22.30;85.10;;;;;;5072598;28;20397;-67
2023/04/12 04:00:50;;;;;;;3.10;1.00;;;22.10;83.50;;;;;;5072591;28;20062;-67
2023/04/12 04:03:18;;;;;;;1.65;0.85;;;21.90;86.70;;;;;;5083249;28;20069;-68
2023/04/12 04:05:45;;;;;;;5.85;0.90;;;21.80;84.50;;;;;;5065452;28;20045;-68
2023/04/12 04:08:13;;;;;;;1.48;0.85;;;21.80;83.10;;;;;;5068025;28;20028;-69
2023/04/12 04:10:41;;;;;;;6.65;0.93;;;21.80;82.80;;;;;;5073071;28;20029;-69
2023/04/12 04:13:09;;;;;;;1.67;0.65;;;21.80;81.50;;;;;;5071396;28;20020;-67
2023/04/12 04:15:36;;;;;;;1.65;0.70;;;21.90;81.00;;;;;;5067785;28;20017;-67
2023/04/12 04:18:04;;;;;;;3.55;1.05;;;21.90;81.00;;;;;;5055940;28;20033;-67
2023/04/12 04:20:32;;;;;;;2.50;0.70;;;22.00;79.10;;;;;;5067004;28;20094;-69
2023/04/12 04:22:59;;;;;;;2.08;0.93;;;21.90;77.70;;;;;;5072027;28;20023;-67
2023/04/12 04:25:28;;;;;;;2.15;1.20;;;22.00;80.50;;;;;;5070825;28;20020;-68
2023/04/12 04:27:58;;;;;;;6.05;1.10;;;22.00;76.70;;;;;;5084807;28;20028;-68
2023/04/12 04:30:25;;;;;;;1.15;0.60;;;22.00;78.10;;;;;;5062575;28;20020;-70
2023/04/12 04:32:53;;;;;;;3.10;1.50;;;22.10;77.00;;;;;;5086218;28;20039;-66
2023/04/12 04:35:22;;;;;;;2.90;1.10;;;22.30;79.70;;;;;;5078431;28;20545;-68
2023/04/12 04:37:51;;;;;;;3.42;0.93;;;22.50;76.60;;;;;;5076450;28;20024;-68
2023/04/12 04:40:20;;;;;;;2.35;0.90;;;22.70;77.30;;;;;;5071271;28;20032;-68
2023/04/12 04:42:53;;;;;;;1.17;0.70;;;23.00;78.80;;;;;;5059860;28;20072;-68
2023/04/12 04:45:27;;;;;;;4.13;1.00;;;23.20;76.00;;;;;;5079317;28;20031;-68
2023/04/12 04:47:55;;;;;;;4.28;0.90;;;23.40;74.80;;;;;;5078883;28;20027;-68
2023/04/12 04:50:25;;;;;;;5.15;0.88;;;23.30;70.00;;;;;;5084292;28;20073;-68
2023/04/12 04:52:52;;;;;;;2.55;1.00;;;23.20;71.70;;;;;;5061042;28;20104;-68
2023/04/12 04:55:20;;;;;;;2.65;0.90;;;23.30;75.00;;;;;;5063068;28;20033;-65
2023/04/12 04:57:48;;;;;;;1.88;0.80;;;23.30;73.80;;;;;;5073915;28;20109;-70
2023/04/12 05:00:17;;;;;;;2.10;0.80;;;23.10;75.40;;;;;;5064320;28;20024;-69
2023/04/12 05:02:44;;;;;;;1.60;0.85;;;23.00;76.50;;;;;;5054536;28;20024;-69
2023/04/12 05:05:12;;;;;;;2.38;0.98;;;23.00;76.30;;;;;;5058310;28;20048;-68
2023/04/12 05:07:40;;;;;;;5.65;0.90;;;22.90;75.80;;;;;;5069872;28;20080;-69
2023/04/12 05:10:08;;;;;;;1.67;0.85;;;22.60;78.00;;;;;;5073032;28;20473;-69
2023/04/12 05:12:36;;;;;;;5.22;0.98;;;22.50;77.80;;;;;;5067494;28;20040;-69
2023/04/12 05:15:04;;;;;;;1.98;0.77;;;22.40;79.10;;;;;;5062728;28;20032;-70
2023/04/12 05:17:35;;;;;;;1.55;0.70;;;22.30;79.10;;;;;;5071873;28;20024;-69
2023/04/12 05:20:07;;;;;;;3.85;1.23;;;22.30;82.20;;;;;;5068015;28;20025;-70
2023/04/12 05:22:35;;;;;;;3.70;0.98;;;22.20;86.20;;;;;;5068762;28;20112;-69
2023/04/12 05:25:02;;;;;;;4.10;1.20;;;22.10;87.00;;;;;;5082438;28;20130;-69
2023/04/12 05:27:30;;;;;;;3.80;0.80;;;22.10;87.70;;;;;;5063188;28;20478;-69
2023/04/12 05:29:58;;;;;;;1.42;0.75;;;22.00;86.80;;;;;;5062356;28;20036;-69
2023/04/12 05:32:25;;;;;;;2.85;0.90;;;22.00;86.00;;;;;;5059983;28;20520;-70
2023/04/12 05:34:53;;;;;;;2.88;0.98;;;21.90;87.30;;;;;;5053936;28;20546;-70
2023/04/12 05:37:20;;;;;;;3.20;2.15;;;21.90;88.50;;;;;;5060642;28;20021;-70
2023/04/12 05:39:51;;;;;;;2.72;1.13;;;21.80;88.00;;;;;;5059260;28;20024;-67
2023/04/12 05:42:18;;;;;;;2.72;1.20;;;21.80;88.80;;;;;;5051212;28;20029;-68
2023/04/12 05:44:47;;;;;;;6.95;1.02;;;21.80;87.70;;;;;;5084235;28;20083;-68
2023/04/12 05:47:14;;;;;;;3.33;0.90;;;21.60;87.40;;;;;;5057578;28;20722;-69
2023/04/12 05:49:42;;;;;;;1.45;1.05;;;21.40;89.70;;;;;;5054639;28;20485;-67
2023/04/12 05:52:09;;;;;;;2.15;0.80;;;21.20;89.60;;;;;;5054946;28;20552;-66
2023/04/12 05:54:37;;;;;;;2.10;1.02;;;21.00;90.00;;;;;;5064817;28;20028;-66
2023/04/12 05:57:04;;;;;;;4.07;1.10;;;20.90;91.20;;;;;;5058557;28;20054;-66
2023/04/12 05:59:32;;;;;;;3.38;0.90;;;20.90;92.10;;;;;;5062633;28;20430;-67
2023/04/12 06:01:59;;;;;;;3.97;1.08;;;21.00;91.70;;;;;;5053655;28;20021;-67
2023/04/12 06:04:27;;;;;;;4.53;1.40;;;21.00;91.90;;;;;;5061003;28;20505;-66
2023/04/12 06:06:55;;;;;;;2.05;0.70;;;21.00;91.50;;;;;;5050672;28;20132;-68
2023/04/12 06:09:22;;;;;;;6.18;1.00;;;21.00;91.60;;;;;;5065277;28;20381;-65
2023/04/12 06:11:52;;;;;;;4.55;0.98;;;21.00;91.40;;;;;;5063036;28;20024;-66
2023/04/12 06:14:19;;;;;;;5.88;1.20;;;21.00;91.20;;;;;;5054135;28;20078;-66
2023/04/12 06:16:47;;;;;;;1.90;1.08;;;20.90;92.50;;;;;;5067440;28;20024;-66
2023/04/12 06:19:14;;;;;;;1.48;0.70;;;20.90;91.80;;;;;;5059699;28;20029;-64
2023/04/12 06:21:42;;;;;;;4.25;1.10;;;20.90;91.70;;;;;;5054291;28;20032;-64
2023/04/12 06:24:09;;;;;;;2.58;0.90;;;20.80;91.90;;;;;;5059041;28;20063;-64
2023/04/12 06:26:37;;;;;;;4.85;1.35;;;20.70;93.00;;;;;;5085839;28;20546;-65
2023/04/12 06:29:05;;;;;;;3.45;1.33;;;20.70;93.70;;;;;;5058870;28;20120;-65
2023/04/12 06:31:32;;;;;;;4.15;1.20;;;20.60;94.00;;;;;;5060583;28;20492;-66
2023/04/12 06:34:00;;;;;;;2.90;1.25;;;20.60;95.00;;;;;;5059326;28;20070;-64
2023/04/12 06:36:27;;;;;;;2.33;1.15;;;20.40;96.10;;;;;;5075301;28;20032;-65
2023/04/12 06:38:54;;;;;;;1.50;0.90;;;20.20;96.60;;;;;;5081733;28;20024;-65
2023/04/12 06:41:22;;;;;;;1.88;1.08;;;20.00;98.10;;;;;;5065058;28;20021;-65
2023/04/12 06:43:49;;;;;;;2.10;1.10;;;19.80;98.70;;;;;;5059876;28;20036;-65
2023/04/12 06:46:24;;;;;;;1.83;0.90;;;19.60;99.50;;;;;;5054869;28;20036;-67
2023/04/12 06:48:52;;;;;;;5.93;1.00;;;19.40;99.90;;;;;;5059806;28;20074;-65
2023/04/12 06:51:19;;;;;;;2.85;1.42;;;19.20;99.90;;;;;;5056114;28;20042;-67
2023/04/12 06:53:47;;;;;;;2.63;1.00;;;19.10;99.90;;;;;;5062189;28;20446;-68
2023/04/12 06:56:14;;;;;;;4.80;1.67;;;18.90;99.90;;;;;;5066840;28;20042;-67
2023/04/12 06:58:42;;;;;;;3.95;1.33;;;18.80;99.90;;;;;;5050711;28;20016;-68
2023/04/12 07:01:09;;;;;;;2.75;1.00;;;18.60;99.90;;;;;;5059900;28;20121;-68
2023/04/12 07:03:37;;;;;;;2.65;1.00;;;18.50;99.90;;;;;;5057769;28;20503;-68
2023/04/12 07:06:05;;;;;;;4.20;1.13;;;18.50;99.90;;;;;;5050207;28;20490;-67
2023/04/12 07:08:34;;;;;;;2.28;1.17;;;18.40;99.90;;;;;;5072613;28;20017;-67
2023/04/12 07:11:03;;;;;;;2.22;1.35;;;18.30;99.90;;;;;;5065311;28;20020;-65
2023/04/12 07:13:30;;;;;;;3.53;1.10;;;18.30;99.90;;;;;;5059208;28;20033;-64
2023/04/12 07:15:59;;;;;;;4.47;1.33;;;18.10;99.90;;;;;;5071883;28;20539;-64
2023/04/12 07:18:27;;;;;;;3.40;1.27;;;18.10;99.90;;;;;;5061319;28;20028;-64
2023/04/12 07:20:58;;;;;;;3.78;1.30;;;18.10;99.90;;;;;;5053833;28;20029;-64
2023/04/12 07:23:26;;;;;;;2.92;1.27;;;18.00;99.90;;;;;;5067677;28;20042;-64
2023/04/12 07:25:58;;;;;;;3.20;1.20;;;18.00;99.90;;;;;;5058590;28;20083;-64
2023/04/12 07:28:26;;;;;;;2.55;1.08;;;17.90;99.90;;;;;;5063853;28;20046;-64
2023/04/12 07:30:53;;;;;;;4.40;1.30;;;17.80;99.90;;;;;;5066080;28;20040;-64
2023/04/12 07:33:21;;;;;;;2.00;1.10;;;17.60;99.90;;;;;;5050933;28;20032;-66
2023/04/12 07:35:48;;;;;;;2.28;1.20;;;17.50;99.90;;;;;;5067219;28;20025;-65
2023/04/12 07:38:15;;;;;;;4.03;1.00;;;17.40;99.90;;;;;;5075021;28;20027;-65
2023/04/12 07:40:43;;;;;;;4.82;1.30;;;17.20;99.90;;;;;;5061525;28;20366;-65
2023/04/12 07:43:10;;;;;;;5.40;1.23;;;17.10;99.90;;;;;;5073530;28;20024;-64
2023/04/12 07:45:38;;;;;;;2.33;1.27;;;17.00;99.90;;;;;;5069903;28;20039;-65
2023/04/12 07:48:06;;;;;;;2.95;1.50;;;16.90;99.90;;;;;;5072866;28;20025;-64
2023/04/12 07:50:33;;;;;;;4.18;1.20;;;16.90;99.90;;;;;;5055100;28;20033;-64
2023/04/12 07:53:25;;;;;;;7.13;1.65;;;17.00;99.90;;;;;;5073377;28;20527;-65
2023/04/12 07:55:53;;;;;;;3.38;1.48;;;17.00;99.90;;;;;;5059555;28;20498;-65
2023/04/12 07:58:22;;;;;;;4.47;1.42;;;17.20;99.90;;;;;;5068302;28;20031;-65
2023/04/12 08:00:50;;;;;;;4.22;1.45;;;17.20;99.90;;;;;;5077014;28;20028;-64
2023/04/12 08:03:18;;;;;;;2.85;1.33;;;17.20;99.90;;;;;;5057682;28;20021;-63
2023/04/12 08:05:51;;;;;;;4.10;1.30;;;17.10;99.90;;;;;;5058097;28;20076;-64
2023/04/12 08:08:20;;;;;;;8.77;1.98;;;17.10;99.90;;;;;;5064214;28;20064;-62
2023/04/12 08:10:48;;;;;;;4.20;1.13;;;17.00;99.90;;;;;;5071132;28;20016;-63
2023/04/12 08:13:16;;;;;;;6.30;1.42;;;17.10;99.90;;;;;;5071047;28;20095;-62
2023/04/12 08:15:43;;;;;;;7.07;1.83;;;16.90;99.90;;;;;;5069697;28;20711;-64
2023/04/12 08:18:11;;;;;;;4.03;2.63;;;16.80;99.90;;;;;;5081281;28;20160;-63
2023/04/12 08:20:44;;;;;;;5.75;2.50;;;16.80;99.90;;;;;;5079971;28;20577;-63
2023/04/12 08:23:12;;;;;;;5.63;1.98;;;16.70;99.90;;;;;;5068367;28;20042;-67
2023/04/12 08:25:40;;;;;;;7.68;2.15;;;16.80;99.90;;;;;;5068527;28;20072;-63
2023/04/12 08:28:07;;;;;;;6.38;2.47;;;16.90;99.90;;;;;;5071285;28;20024;-63
2023/04/12 08:30:35;;;;;;;5.50;1.90;;;17.00;99.90;;;;;;5063263;28;20016;-63
2023/04/12 08:33:03;;;;;;;3.35;1.73;;;17.10;99.90;;;;;;5079718;28;20024;-63
2023/04/12 08:35:30;;;;;;;3.40;1.77;;;17.00;99.90;;;;;;5079804;28;20032;-63
2023/04/12 08:37:59;;;;;;;5.13;2.08;;;16.90;99.90;;;;;;5077056;28;20054;-63
2023/04/12 08:40:26;;;;;;;8.18;1.92;;;16.80;99.90;;;;;;5070967;28;20032;-62
2023/04/12 08:42:54;;;;;;;2.90;1.52;;;16.80;99.90;;;;;;5073560;28;20092;-63
2023/04/12 08:45:25;;;;;;;3.78;2.35;;;16.70;99.90;;;;;;5055248;28;20033;-64
2023/04/12 08:47:52;;;;;;;3.05;1.30;;;16.60;99.90;;;;;;5059179;28;20029;-67
2023/04/12 08:50:21;;;;;;;2.60;1.50;;;16.50;99.90;;;;;;5056181;28;20466;-67
2023/04/12 08:52:52;;;;;;;3.47;1.40;;;16.50;99.90;;;;;;5057408;28;20098;-67
2023/04/12 08:55:20;;;;;;;4.47;2.25;;;16.50;99.90;;;;;;5057458;28;20504;-67
2023/04/12 08:57:48;;;;;;;5.30;1.65;;;16.50;99.90;;;;;;5073938;28;20740;-68
2023/04/12 09:00:17;;;;;;;4.03;1.48;;;16.50;99.90;;;;;;5062854;28;20370;-64
2023/04/12 09:02:47;;;;;;;7.32;2.08;;;16.50;99.90;;;;;;5061272;28;20358;-63
2023/04/12 09:05:15;;;;;;;2.65;1.30;;;16.30;99.90;;;;;;5060462;28;20388;-64
2023/04/12 09:07:43;;;;;;;2.58;1.40;;;16.50;99.90;;;;;;5055963;28;20036;-66
2023/04/12 09:10:28;;;;;;;4.85;1.70;;;16.60;99.90;;;;;;5054246;28;20029;-65
2023/04/12 09:12:56;;;;;;;3.13;1.77;;;16.80;99.90;;;;;;5057415;28;20056;-66
2023/04/12 09:15:23;;;;;;;5.85;1.52;;;16.80;99.90;;;;;;5059935;28;20104;-65
2023/04/12 09:18:07;;;;;;;4.03;1.40;;;16.80;99.90;;;;;;5076187;28;20111;-65
2023/04/12 09:20:35;;;;;;;3.05;1.50;;;16.60;99.90;;;;;;5068731;28;20575;-66
2023/04/12 09:23:20;;;;;;;4.20;1.80;;;16.50;99.90;;;;;;5062379;28;20025;-65
2023/04/12 09:25:51;;;;;;;3.42;1.70;;;16.40;99.90;;;;;;5065408;28;20041;-67
2023/04/12 09:28:29;;;;;;;4.15;1.70;;;16.30;99.90;;;;;;5080754;28;20028;-65
2023/04/12 09:30:58;;;;;;;4.88;2.30;;;16.30;99.90;;;;;;5058815;28;20032;-65
2023/04/12 09:33:38;;;;;;;8.25;1.73;;;16.40;99.90;;;;;;5060935;28;20036;-65
2023/04/12 09:36:12;;;;;;;3.75;1.58;;;16.30;99.90;;;;;;5067328;28;20036;-65
2023/04/12 09:38:41;;;;;;;10.25;3.63;;;16.20;99.90;;;;;;5066423;28;20388;-67
2023/04/12 09:41:21;;;;;;;4.60;1.73;;;16.20;99.90;;;;;;5049293;28;20059;-66
2023/04/12 09:43:48;;;;;;;6.72;2.13;;;16.10;99.90;;;;;;5048310;28;20155;-65
2023/04/12 09:46:16;;;;;;;5.05;1.58;;;16.10;99.90;;;;;;5053883;28;20047;-65
2023/04/12 09:48:54;;;;;;;8.45;2.00;;;16.10;99.90;;;;;;5057692;28;20078;-65
2023/04/12 09:51:30;;;;;;;2.42;1.80;;;16.10;99.90;;;;;;5061420;28;20025;-65
2023/04/12 09:54:02;;;;;;;10.07;1.95;;;16.20;99.90;;;;;;5054793;28;20100;-65
2023/04/12 09:56:34;;;;;;;4.22;2.03;;;16.30;99.90;;;;;;5052759;28;20037;-65
2023/04/12 09:59:03;;;;;;;21.10;2.72;;;16.40;99.90;;;;;;5060520;28;20020;-66
2023/04/12 10:01:35;;;;;;;6.60;2.22;;;16.60;99.90;;;;;;5049273;28;20060;-66
2023/04/12 10:04:05;;;;;;;4.38;1.40;;;16.60;99.90;;;;;;5062721;28;20034;-65
2023/04/12 10:06:36;;;;;;;3.55;1.63;;;16.60;99.90;;;;;;5059815;28;20044;-65
2023/04/12 10:09:07;;;;;;;4.53;1.30;;;16.60;99.90;;;;;;5050555;28;20167;-65
2023/04/12 10:11:35;;;;;;;9.65;1.67;;;16.50;99.90;;;;;;5065989;28;20048;-66
2023/04/12 10:14:02;;;;;;;3.28;1.48;;;16.50;99.90;;;;;;5056109;28;20020;-66
2023/04/12 10:16:32;;;;;;;10.75;1.50;;;16.40;99.90;;;;;;5053941;28;20405;-66
2023/04/12 10:19:02;;;;;;;7.07;2.10;;;16.30;99.90;;;;;;5059353;28;20016;-67
2023/04/12 10:21:30;;;;;;;8.75;1.80;;;16.30;99.90;;;;;;5056752;28;20033;-65
2023/04/12 10:23:58;;;;;;;4.97;2.30;;;16.30;99.90;;;;;;5050975;28;20071;-65
2023/04/12 10:26:27;;;;;;;5.97;2.05;;;16.30;99.90;;;;;;5049781;28;20049;-66
2023/04/12 10:29:22;;;;;;;5.78;1.52;;;16.30;99.90;;;;;;5051593;28;20033;-65
2023/04/12 10:31:50;;;;;;;5.85;1.85;;;16.30;99.90;;;;;;5048421;28;20028;-66
2023/04/12 10:34:18;;;;;;;11.68;2.55;;;16.30;99.90;;;;;;5051940;28;20109;-66
2023/04/12 10:36:52;;;;;;;5.65;2.10;;;16.30;99.90;;;;;;5057518;28;20066;-67
2023/04/12 10:39:37;;;;;;;4.10;1.65;;;16.20;99.90;;;;;;5054138;28;20378;-67
2023/04/12 10:42:27;;;;;;;3.10;1.58;;;16.20;99.90;;;;;;5058049;28;20120;-66
2023/04/12 10:45:15;;;;;;;8.52;1.80;;;16.20;99.90;;;;;;5053738;28;20036;-66
2023/04/12 10:47:49;;;;;;;4.07;1.50;;;16.10;99.90;;;;;;5053526;28;20032;-67
2023/04/12 10:50:25;;;;;;;4.10;2.08;;;16.00;99.90;;;;;;5053764;28;20063;-66
2023/04/12 10:53:17;;;;;;;4.13;1.77;;;15.90;99.90;;;;;;5061247;28;20061;-66
2023/04/12 10:55:45;;;;;;;4.70;2.00;;;15.80;99.90;;;;;;5050988;28;20455;-65
2023/04/12 10:58:47;;;;;;;4.95;2.65;;;15.80;99.90;;;;;;5072576;28;20029;-66
2023/04/12 11:01:17;;;;;;;7.45;2.30;;;15.70;99.90;;;;;;5056414;28;20021;-65
2023/04/12 11:04:05;;;;;;;7.07;2.28;;;15.70;99.90;;;;;;5055380;28;20116;-66
2023/04/12 11:06:46;;;;;;;3.92;1.63;;;15.70;99.90;;;;;;5057805;28;20052;-65
2023/04/12 11:09:33;;;;;;;5.13;1.90;;;15.80;99.90;;;;;;5060697;28;20025;-66
2023/04/12 11:12:07;;;;;;;6.07;2.10;;;15.80;99.90;;;;;;5056175;28;20449;-65
2023/04/12 11:14:43;;;;;;;5.95;2.30;;;15.70;99.90;;;;;;5054342;28;20029;-66
2023/04/12 11:17:14;;;;;;;7.78;3.22;;;15.60;99.90;;;;;;5056405;28;20389;-66
2023/04/12 11:19:48;;;;;;;3.75;1.73;;;15.60;99.90;;;;;;5053654;28;20108;-66
2023/04/12 11:22:19;;;;;;;5.35;2.00;;;15.50;99.90;;;;;;5047477;28;20025;-66
2023/04/12 11:24:54;;;;;;;4.85;1.80;;;15.50;99.90;;;;;;5063475;28;20579;-66
2023/04/12 11:27:24;;;;;;;6.18;2.25;;;15.50;99.90;;;;;;5049236;28;20111;-67
2023/04/12 11:29:56;;;;;;;5.65;2.45;;;15.50;99.90;;;;;;5058078;28;20434;-67
2023/04/12 11:32:26;;;;;;;5.55;1.60;;;15.50;99.90;;;;;;5065059;28;20047;-67
2023/04/12 11:34:55;;;;;;;4.75;1.77;;;15.50;99.90;;;;;;5048611;28;20560;-67
2023/04/12 11:37:25;;;;;;;4.60;1.75;;;15.60;99.90;;;;;;5060228;28;20048;-67
2023/04/12 11:39:56;;;;;;;8.85;2.47;;;15.60;99.90;;;;;;5048350;28;20029;-67
2023/04/12 11:42:25;;;;;;;5.45;2.38;;;15.60;99.90;;;;;;5061998;28;20742;-68
2023/04/12 11:44:53;;;;;;;4.65;2.17;;;15.60;99.90;;;;;;5060911;28;20071;-67
2023/04/12 11:47:23;;;;;;;6.65;2.13;;;15.70;99.90;;;;;;5071179;28;20033;-67
2023/04/12 11:49:56;;;;;;;5.97;1.80;;;15.70;99.90;;;;;;5052162;28;20051;-67
2023/04/12 11:52:32;;;;;;;5.72;2.05;;;15.70;99.90;;;;;;5056838;28;20040;-67
2023/04/12 11:55:05;;;;;;;6.07;2.50;;;15.70;99.90;;;;;;5054736;28;20025;-67
2023/04/12 11:57:33;;;;;;;5.15;2.03;;;15.70;99.90;;;;;;5056690;28;20082;-67
2023/04/12 12:00:05;;;;;;;10.45;2.33;;;15.60;99.90;;;;;;5061361;28;20029;-67
2023/04/12 12:02:34;;;;;;;15.63;3.63;;;15.60;99.90;;;;;;5056547;28;20032;-67
2023/04/12 12:05:02;;;;;;;35.85;5.53;;;15.70;99.90;;;;;;5060053;28;20107;-67
2023/04/12 12:07:30;;;;;;;8.57;2.50;;;15.70;99.90;;;;;;5062095;28;20048;-67
2023/04/12 12:09:58;;;;;;;4.78;2.08;;;15.80;99.90;;;;;;5070467;28;20025;-66
2023/04/12 12:12:26;;;;;;;13.05;2.47;;;15.80;99.90;;;;;;5052853;28;20025;-66
2023/04/12 12:15:07;;;;;;;6.07;2.53;;;15.80;99.90;;;;;;5055354;28;20021;-66
2023/04/12 12:17:38;;;;;;;10.38;2.65;;;15.80;99.90;;;;;;5051737;28;20433;-64
2023/04/12 12:20:06;;;;;;;11.20;2.78;;;15.80;99.90;;;;;;5051673;28;20023;-65
2023/04/12 12:22:34;;;;;;;15.32;2.75;;;15.80;99.90;;;;;;5056876;28;20405;-64
2023/04/12 12:25:02;;;;;;;10.70;2.75;;;15.90;99.90;;;;;;5053190;28;20117;-65
2023/04/12 12:27:37;;;;;;;10.32;3.03;;;15.80;99.90;;;;;;5066210;28;20032;-65
2023/04/12 12:30:08;;;;;;;4.97;2.58;;;16.00;99.90;;;;;;5061597;28;22166;-66
2023/04/12 12:32:38;;;;;;;5.05;2.47;;;16.00;99.90;;;;;;5056982;28;20554;-66
2023/04/12 12:35:14;;;;;;;5.82;2.78;;;15.90;99.90;;;;;;5054134;28;20028;-67
2023/04/12 12:37:54;;;;;;;7.90;2.90;;;16.00;99.90;;;;;;5055743;28;20020;-66
2023/04/12 12:40:31;;;;;;;6.03;2.80;;;15.90;99.90;;;;;;5051139;28;20029;-67
2023/04/12 12:42:59;;;;;;;9.23;2.50;;;15.80;99.90;;;;;;5063354;28;20115;-66
2023/04/12 12:45:28;;;;;;;10.68;3.50;;;15.90;99.90;;;;;;5057679;28;20032;-66
2023/04/12 12:47:59;;;;;;;5.78;2.03;;;15.80;99.90;;;;;;5058891;28;20025;-67
2023/04/12 12:50:31;;;;;;;8.55;2.35;;;15.80;99.90;;;;;;5060576;28;20524;-66
2023/04/12 12:52:59;;;;;;;7.53;2.10;;;15.70;99.90;;;;;;5057114;28;20016;-67
2023/04/12 12:55:28;;;;;;;5.97;2.17;;;15.70;99.90;;;;;;5054147;28;20029;-67
2023/04/12 12:57:57;;;;;;;4.68;2.45;;;15.70;99.90;;;;;;5059380;28;20020;-66
2023/04/12 13:00:27;;;;;;;3.67;1.98;;;15.70;99.90;;;;;;5056879;28;20025;-66
2023/04/12 13:02:55;;;;;;;4.68;2.05;;;15.60;99.90;;;;;;5059268;28;20020;-66